Annabella 1 — 9HAO8 — position and weather

sailwx.info

Track history (hours):
 
Tides and Currents Weather Stations Pressure Air Temp Water Temp Dewpoint Dewpoint Depression Visibility Wind Speed Wind Dir Waves Ship Positions

Annabella 1

Last reported at 2018-Jun-17 00:17 UTC. Time now 2018-Jun-25 19:45 UTC.
Position N 31°37' E 031°45'.
Warning: this ship's position is 8 days out of date.

Length 122 m; draft 4.9 m.

Type: Cargo ship. MMSI: 215784000.

Date/timePositionNaut miles runAvg speedWind from/ knotsBaromVisibWave heightAir tempDewpointWater temp
2018-Jun-17 00:17N 31°37' E 031°45'0 0.0
2018-Jun-16 17:03N 31°37' E 031°45'0 0.1
2018-Jun-16 16:59N 31°37' E 031°45'0 0.0
2018-Jun-16 16:29N 31°37' E 031°45'0 0.1
2018-Jun-16 15:57N 31°37' E 031°45'0 0.0
2018-Jun-16 15:27N 31°37' E 031°45'51 4.0
2018-Jun-16 02:33N 32°18' E 032°23'112.0
2018-Jun-16 02:30N 32°18' E 032°23'612.0
2018-Jun-16 02:00N 32°23' E 032°27'612.0
2018-Jun-16 01:30N 32°28' E 032°31'612.1
2018-Jun-16 01:00N 32°33' E 032°35'612.0
2018-Jun-16 00:30N 32°38' E 032°39'612.0
2018-Jun-16 00:00N 32°43' E 032°43'611.8
2018-Jun-15 23:30N 32°48' E 032°47'612.1
2018-Jun-15 23:00N 32°53' E 032°51'612.2
2018-Jun-15 22:30N 32°58' E 032°55'612.6
2018-Jun-15 22:00N 33°04' E 032°59'613.0
2018-Jun-15 21:30N 33°09' E 033°03'613.1
2018-Jun-15 21:00N 33°14' E 033°07'713.3
2018-Jun-15 20:30N 33°20' E 033°12'713.6
2018-Jun-15 20:00N 33°26' E 033°16'713.4
2018-Jun-15 19:30N 33°31' E 033°20'713.2
2018-Jun-15 19:00N 33°37' E 033°25'612.8
2018-Jun-15 18:30N 33°42' E 033°29'612.8
2018-Jun-15 18:00N 33°48' E 033°33'612.7
2018-Jun-15 17:30N 33°53' E 033°37'612.4
2018-Jun-15 17:00N 33°58' E 033°41'612.2
2018-Jun-15 16:30N 34°03' E 033°45'612.1
2018-Jun-15 15:59N 34°09' E 033°49'612.0
2018-Jun-15 15:30N 34°13' E 033°53'611.9
2018-Jun-15 14:58N 34°19' E 033°58'511.8
2018-Jun-15 14:30N 34°23' E 034°02'612.0
2018-Jun-15 14:01N 34°28' E 034°06'611.7
2018-Jun-15 13:31N 34°33' E 034°10'611.8
2018-Jun-15 13:00N 34°38' E 034°13'611.7
2018-Jun-15 12:30N 34°43' E 034°17'611.6
2018-Jun-15 12:00N 34°48' E 034°21'611.8
2018-Jun-15 11:30N 34°53' E 034°25'611.9
2018-Jun-15 11:00N 34°57' E 034°29'611.7
2018-Jun-15 10:30N 35°02' E 034°33'611.9
2018-Jun-15 10:00N 35°07' E 034°37'  
2018-Jun-07 06:54N 36°02' E 024°19'511.6
2018-Jun-07 06:29N 36°02' E 024°13'611.5
2018-Jun-07 05:57N 36°02' E 024°05'811.7
2018-Jun-07 05:18N 36°02' E 023°56'411.9
2018-Jun-07 05:00N 36°02' E 023°51'611.9
2018-Jun-07 04:30N 36°02' E 023°44'611.5
2018-Jun-07 04:00N 36°02' E 023°37'  
Track history (hours):
 
Tides and Currents Weather Stations Pressure Air Temp Water Temp Dewpoint Dewpoint Depression Visibility Wind Speed Wind Dir Waves Ship Positions

Annabella 1

Last reported at 2018-Jun-17 00:17 UTC. Time now 2018-Jun-25 19:45 UTC.
Position N 31°37' E 031°45'.
Warning: this ship's position is 8 days out of date.

Length 122 m; draft 4.9 m.

Type: Cargo ship. MMSI: 215784000.

Date/timePositionNaut miles runAvg speedWind from/ knotsBaromVisibWave heightAir tempDewpointWater temp
2018-Jun-17 00:17N 31°37' E 031°45'0 0.0
2018-Jun-16 17:03N 31°37' E 031°45'0 0.1
2018-Jun-16 16:59N 31°37' E 031°45'0 0.0
2018-Jun-16 16:29N 31°37' E 031°45'0 0.1
2018-Jun-16 15:57N 31°37' E 031°45'0 0.0
2018-Jun-16 15:27N 31°37' E 031°45'51 4.0
2018-Jun-16 02:33N 32°18' E 032°23'112.0
2018-Jun-16 02:30N 32°18' E 032°23'612.0
2018-Jun-16 02:00N 32°23' E 032°27'612.0
2018-Jun-16 01:30N 32°28' E 032°31'612.1
2018-Jun-16 01:00N 32°33' E 032°35'612.0
2018-Jun-16 00:30N 32°38' E 032°39'612.0
2018-Jun-16 00:00N 32°43' E 032°43'611.8
2018-Jun-15 23:30N 32°48' E 032°47'612.1
2018-Jun-15 23:00N 32°53' E 032°51'612.2
2018-Jun-15 22:30N 32°58' E 032°55'612.6
2018-Jun-15 22:00N 33°04' E 032°59'613.0
2018-Jun-15 21:30N 33°09' E 033°03'613.1
2018-Jun-15 21:00N 33°14' E 033°07'713.3
2018-Jun-15 20:30N 33°20' E 033°12'713.6
2018-Jun-15 20:00N 33°26' E 033°16'713.4
2018-Jun-15 19:30N 33°31' E 033°20'713.2
2018-Jun-15 19:00N 33°37' E 033°25'612.8
2018-Jun-15 18:30N 33°42' E 033°29'612.8
2018-Jun-15 18:00N 33°48' E 033°33'612.7
2018-Jun-15 17:30N 33°53' E 033°37'612.4
2018-Jun-15 17:00N 33°58' E 033°41'612.2
2018-Jun-15 16:30N 34°03' E 033°45'612.1
2018-Jun-15 15:59N 34°09' E 033°49'612.0
2018-Jun-15 15:30N 34°13' E 033°53'611.9
2018-Jun-15 14:58N 34°19' E 033°58'511.8
2018-Jun-15 14:30N 34°23' E 034°02'612.0
2018-Jun-15 14:01N 34°28' E 034°06'611.7
2018-Jun-15 13:31N 34°33' E 034°10'611.8
2018-Jun-15 13:00N 34°38' E 034°13'611.7
2018-Jun-15 12:30N 34°43' E 034°17'611.6
2018-Jun-15 12:00N 34°48' E 034°21'611.8
2018-Jun-15 11:30N 34°53' E 034°25'611.9
2018-Jun-15 11:00N 34°57' E 034°29'611.7
2018-Jun-15 10:30N 35°02' E 034°33'611.9
2018-Jun-15 10:00N 35°07' E 034°37'  
2018-Jun-07 06:54N 36°02' E 024°19'511.6
2018-Jun-07 06:29N 36°02' E 024°13'611.5
2018-Jun-07 05:57N 36°02' E 024°05'811.7
2018-Jun-07 05:18N 36°02' E 023°56'411.9
2018-Jun-07 05:00N 36°02' E 023°51'611.9
2018-Jun-07 04:30N 36°02' E 023°44'611.5
2018-Jun-07 04:00N 36°02' E 023°37'  

Dump ship's entire track history